sensor_id;sensor_type;location;lat;lon;timestamp;pressure;altitude;pressure_sealevel;temperature;humidity
12247;BME280;6186;52.022;4.692;2023-11-21T00:43:23;101239.41;;;9.18;100.00
12247;BME280;6186;52.022;4.692;2023-11-21T00:45:49;101236.78;;;9.18;100.00
12247;BME280;6186;52.022;4.692;2023-11-21T00:48:14;101242.91;;;9.21;100.00
12247;BME280;6186;52.022;4.692;2023-11-21T00:50:40;101241.13;;;9.23;100.00
12247;BME280;6186;52.022;4.692;2023-11-21T00:53:05;101251.59;;;9.25;100.00
12247;BME280;6186;52.022;4.692;2023-11-21T00:55:30;101248.97;;;9.25;100.00
12247;BME280;6186;52.022;4.692;2023-11-21T00:57:56;101249.81;;;9.28;100.00
12247;BME280;6186;52.022;4.692;2023-11-21T01:00:21;101239.31;;;9.28;100.00
12247;BME280;6186;52.022;4.692;2023-11-21T01:02:46;101248.03;;;9.30;100.00
12247;BME280;6186;52.022;4.692;2023-11-21T01:05:11;101250.63;;;9.32;100.00
12247;BME280;6186;52.022;4.692;2023-11-21T01:07:36;101261.97;;;9.34;100.00
12247;BME280;6186;52.022;4.692;2023-11-21T01:10:03;101256.75;;;9.32;100.00
12247;BME280;6186;52.022;4.692;2023-11-21T01:12:28;101256.69;;;9.35;100.00
12247;BME280;6186;52.022;4.692;2023-11-21T01:14:53;101251.44;;;9.35;100.00
12247;BME280;6186;52.022;4.692;2023-11-21T01:17:19;101246.19;;;9.35;100.00
12247;BME280;6186;52.022;4.692;2023-11-21T01:19:44;101250.56;;;9.36;100.00
12247;BME280;6186;52.022;4.692;2023-11-21T01:22:09;101255.84;;;9.36;100.00
12247;BME280;6186;52.022;4.692;2023-11-21T01:24:34;101261.09;;;9.35;100.00
12247;BME280;6186;52.022;4.692;2023-11-21T01:26:59;101276.75;;;9.41;100.00
12247;BME280;6186;52.022;4.692;2023-11-21T01:29:25;101282.00;;;9.42;100.00
12247;BME280;6186;52.022;4.692;2023-11-21T01:31:50;101282.00;;;9.44;100.00
12247;BME280;6186;52.022;4.692;2023-11-21T01:34:15;101286.34;;;9.45;100.00
12247;BME280;6186;52.022;4.692;2023-11-21T01:36:40;101290.72;;;9.46;100.00
12247;BME280;6186;52.022;4.692;2023-11-21T01:39:05;101284.56;;;9.47;100.00
12247;BME280;6186;52.022;4.692;2023-11-21T01:41:31;101290.66;;;9.50;100.00
12247;BME280;6186;52.022;4.692;2023-11-21T01:43:56;101293.25;;;9.54;100.00
12247;BME280;6186;52.022;4.692;2023-11-21T01:46:22;101296.72;;;9.56;100.00
12247;BME280;6186;52.022;4.692;2023-11-21T01:48:48;101302.00;;;9.56;100.00
12247;BME280;6186;52.022;4.692;2023-11-21T01:51:14;101304.59;;;9.57;100.00
12247;BME280;6186;52.022;4.692;2023-11-21T01:53:40;101306.31;;;9.58;100.00
12247;BME280;6186;52.022;4.692;2023-11-21T01:56:06;101301.06;;;9.58;100.00
12247;BME280;6186;52.022;4.692;2023-11-21T01:58:32;101300.22;;;9.56;100.00
12247;BME280;6186;52.022;4.692;2023-11-21T02:00:57;101306.28;;;9.61;100.00
12247;BME280;6186;52.022;4.692;2023-11-21T02:03:22;101313.28;;;9.62;100.00
12247;BME280;6186;52.022;4.692;2023-11-21T02:05:47;101301.88;;;9.62;100.00
12247;BME280;6186;52.022;4.692;2023-11-21T02:08:13;101309.78;;;9.63;100.00
12247;BME280;6186;52.022;4.692;2023-11-21T02:10:38;101312.38;;;9.65;100.00
12247;BME280;6186;52.022;4.692;2023-11-21T02:13:03;101309.72;;;9.66;100.00
12247;BME280;6186;52.022;4.692;2023-11-21T02:15:29;101317.63;;;9.65;100.00
12247;BME280;6186;52.022;4.692;2023-11-21T02:17:54;101322.81;;;9.68;100.00
12247;BME280;6186;52.022;4.692;2023-11-21T02:20:21;101317.53;;;9.69;100.00
12247;BME280;6186;52.022;4.692;2023-11-21T02:22:53;101321.03;;;9.71;100.00
12247;BME280;6186;52.022;4.692;2023-11-21T02:25:19;101328.91;;;9.73;100.00
12247;BME280;6186;52.022;4.692;2023-11-21T02:27:44;101326.28;;;9.73;100.00
12247;BME280;6186;52.022;4.692;2023-11-21T02:30:10;101329.72;;;9.75;100.00
12247;BME280;6186;52.022;4.692;2023-11-21T02:32:35;101322.72;;;9.75;100.00
12247;BME280;6186;52.022;4.692;2023-11-21T02:35:00;101330.56;;;9.77;100.00
12247;BME280;6186;52.022;4.692;2023-11-21T02:37:26;101327.06;;;9.78;100.00
12247;BME280;6186;52.022;4.692;2023-11-21T02:39:51;101325.31;;;9.78;100.00
12247;BME280;6186;52.022;4.692;2023-11-21T02:42:17;101329.66;;;9.81;100.00
12247;BME280;6186;52.022;4.692;2023-11-21T02:44:42;101332.28;;;9.81;100.00
12247;BME280;6186;52.022;4.692;2023-11-21T02:47:07;101329.66;;;9.81;100.00
12247;BME280;6186;52.022;4.692;2023-11-21T02:49:32;101338.38;;;9.83;100.00
12247;BME280;6186;52.022;4.692;2023-11-21T02:51:58;101330.47;;;9.84;100.00
12247;BME280;6186;52.022;4.692;2023-11-21T02:54:23;101339.22;;;9.85;100.00
12247;BME280;6186;52.022;4.692;2023-11-21T02:56:48;101319.09;;;9.84;100.00
12247;BME280;6186;52.022;4.692;2023-11-21T02:59:14;101336.59;;;9.88;100.00
12247;BME280;6186;52.022;4.692;2023-11-21T03:01:39;101327.78;;;9.89;100.00
12247;BME280;6186;52.022;4.692;2023-11-21T03:04:04;101339.19;;;9.89;100.00
12247;BME280;6186;52.022;4.692;2023-11-21T03:06:30;101336.53;;;9.91;100.00
12247;BME280;6186;52.022;4.692;2023-11-21T03:08:55;101334.78;;;9.91;100.00
12247;BME280;6186;52.022;4.692;2023-11-21T03:11:20;101334.75;;;9.93;100.00
12247;BME280;6186;52.022;4.692;2023-11-21T03:13:45;101335.59;;;9.95;100.00
12247;BME280;6186;52.022;4.692;2023-11-21T03:16:11;101341.69;;;9.97;100.00
12247;BME280;6186;52.022;4.692;2023-11-21T03:18:37;101344.31;;;9.98;100.00
12247;BME280;6186;52.022;4.692;2023-11-21T03:21:06;101346.03;;;9.99;100.00
12247;BME280;6186;52.022;4.692;2023-11-21T03:23:32;101343.41;;;9.99;100.00
12247;BME280;6186;52.022;4.692;2023-11-21T03:25:57;101338.97;;;10.01;100.00
12247;BME280;6186;52.022;4.692;2023-11-21T03:28:22;101339.00;;;10.03;100.00
12247;BME280;6186;52.022;4.692;2023-11-21T03:30:48;101346.84;;;10.04;100.00
12247;BME280;6186;52.022;4.692;2023-11-21T03:33:13;101345.94;;;10.05;100.00
12247;BME280;6186;52.022;4.692;2023-11-21T03:35:38;101348.56;;;10.05;100.00
12247;BME280;6186;52.022;4.692;2023-11-21T03:38:03;101346.84;;;10.04;100.00
12247;BME280;6186;52.022;4.692;2023-11-21T03:40:29;101353.84;;;10.04;100.00
12247;BME280;6186;52.022;4.692;2023-11-21T03:42:54;101352.97;;;10.05;100.00
12247;BME280;6186;52.022;4.692;2023-11-21T03:45:19;101359.13;;;10.04;100.00
12247;BME280;6186;52.022;4.692;2023-11-21T03:47:44;101364.38;;;10.04;100.00
12247;BME280;6186;52.022;4.692;2023-11-21T03:50:09;101366.13;;;10.03;100.00
12247;BME280;6186;52.022;4.692;2023-11-21T03:52:35;101378.38;;;10.06;100.00
12247;BME280;6186;52.022;4.692;2023-11-21T03:55:01;101367.88;;;10.04;100.00
12247;BME280;6186;52.022;4.692;2023-11-21T03:57:26;101379.28;;;10.05;100.00
12247;BME280;6186;52.022;4.692;2023-11-21T03:59:51;101380.16;;;10.04;100.00
12247;BME280;6186;52.022;4.692;2023-11-21T04:02:17;101386.28;;;10.06;100.00
12247;BME280;6186;52.022;4.692;2023-11-21T04:04:42;101390.69;;;10.04;100.00
12247;BME280;6186;52.022;4.692;2023-11-21T04:07:07;101392.38;;;10.08;100.00
12247;BME280;6186;52.022;4.692;2023-11-21T04:09:32;101398.53;;;10.10;100.00
12247;BME280;6186;52.022;4.692;2023-11-21T04:11:57;101394.09;;;10.09;100.00
12247;BME280;6186;52.022;4.692;2023-11-21T04:14:23;101400.25;;;10.11;100.00
12247;BME280;6186;52.022;4.692;2023-11-21T04:16:48;101400.25;;;10.11;100.00
12247;BME280;6186;52.022;4.692;2023-11-21T04:19:14;101407.25;;;10.12;100.00
12247;BME280;6186;52.022;4.692;2023-11-21T04:21:40;101408.16;;;10.12;100.00
12247;BME280;6186;52.022;4.692;2023-11-21T04:24:06;101414.25;;;10.13;100.00
12247;BME280;6186;52.022;4.692;2023-11-21T04:26:31;101413.41;;;10.12;100.00
12247;BME280;6186;52.022;4.692;2023-11-21T04:28:56;101428.28;;;10.13;100.00
12247;BME280;6186;52.022;4.692;2023-11-21T04:31:21;101432.63;;;10.16;100.00
12247;BME280;6186;52.022;4.692;2023-11-21T04:33:47;101433.47;;;10.16;100.00
12247;BME280;6186;52.022;4.692;2023-11-21T04:36:12;101434.34;;;10.18;100.00
12247;BME280;6186;52.022;4.692;2023-11-21T04:38:37;101434.38;;;10.17;100.00
12247;BME280;6186;52.022;4.692;2023-11-21T04:41:02;101437.84;;;10.19;100.00
12247;BME280;6186;52.022;4.692;2023-11-21T04:43:28;101434.34;;;10.20;100.00
12247;BME280;6186;52.022;4.692;2023-11-21T04:45:54;101441.31;;;10.21;100.00
12247;BME280;6186;52.022;4.692;2023-11-21T04:48:20;101436.91;;;10.23;100.00
12247;BME280;6186;52.022;4.692;2023-11-21T04:50:45;101435.16;;;10.23;100.00
12247;BME280;6186;52.022;4.692;2023-11-21T04:53:10;101448.28;;;10.25;100.00
12247;BME280;6186;52.022;4.692;2023-11-21T04:55:35;101447.41;;;10.24;100.00
12247;BME280;6186;52.022;4.692;2023-11-21T04:58:00;101461.44;;;10.25;100.00
12247;BME280;6186;52.022;4.692;2023-11-21T05:00:26;101459.69;;;10.25;100.00
12247;BME280;6186;52.022;4.692;2023-11-21T05:02:51;101466.69;;;10.26;100.00
12247;BME280;6186;52.022;4.692;2023-11-21T05:05:16;101473.66;;;10.29;100.00
12247;BME280;6186;52.022;4.692;2023-11-21T05:07:42;101469.28;;;10.29;100.00
12247;BME280;6186;52.022;4.692;2023-11-21T05:10:07;101455.34;;;10.23;100.00
12247;BME280;6186;52.022;4.692;2023-11-21T05:12:33;101472.75;;;10.33;100.00
12247;BME280;6186;52.022;4.692;2023-11-21T05:14:58;101465.69;;;10.35;100.00
12247;BME280;6186;52.022;4.692;2023-11-21T05:17:23;101461.28;;;10.37;100.00
12247;BME280;6186;52.022;4.692;2023-11-21T05:19:48;101468.31;;;10.36;100.00
12247;BME280;6186;52.022;4.692;2023-11-21T05:22:14;101471.78;;;10.38;100.00
12247;BME280;6186;52.022;4.692;2023-11-21T05:24:39;101473.50;;;10.39;100.00
12247;BME280;6186;52.022;4.692;2023-11-21T05:27:04;101489.25;;;10.41;100.00
12247;BME280;6186;52.022;4.692;2023-11-21T05:29:29;101488.41;;;10.40;100.00
12247;BME280;6186;52.022;4.692;2023-11-21T05:31:55;101490.16;;;10.40;100.00
12247;BME280;6186;52.022;4.692;2023-11-21T05:34:20;101494.56;;;10.39;100.00
12247;BME280;6186;52.022;4.692;2023-11-21T05:36:45;101507.75;;;10.38;100.00
12247;BME280;6186;52.022;4.692;2023-11-21T05:39:11;101502.47;;;10.38;100.00
12247;BME280;6186;52.022;4.692;2023-11-21T05:41:36;101494.56;;;10.39;100.00
12247;BME280;6186;52.022;4.692;2023-11-21T05:44:01;101498.06;;;10.40;100.00
12247;BME280;6186;52.022;4.692;2023-11-21T05:46:26;101505.09;;;10.39;100.00
12247;BME280;6186;52.022;4.692;2023-11-21T05:48:51;101511.22;;;10.40;100.00
12247;BME280;6186;52.022;4.692;2023-11-21T05:51:17;101512.97;;;10.39;100.00
12247;BME280;6186;52.022;4.692;2023-11-21T05:53:42;101512.09;;;10.39;100.00
12247;BME280;6186;52.022;4.692;2023-11-21T05:56:07;101520.00;;;10.39;100.00
12247;BME280;6186;52.022;4.692;2023-11-21T05:58:33;101522.66;;;10.37;100.00
12247;BME280;6186;52.022;4.692;2023-11-21T06:00:58;101530.53;;;10.39;100.00
12247;BME280;6186;52.022;4.692;2023-11-21T06:03:23;101534.94;;;10.38;100.00
12247;BME280;6186;52.022;4.692;2023-11-21T06:05:48;101533.19;;;10.37;100.00
12247;BME280;6186;52.022;4.692;2023-11-21T06:08:13;101543.69;;;10.40;100.00
12247;BME280;6186;52.022;4.692;2023-11-21T06:10:39;101548.91;;;10.43;100.00
12247;BME280;6186;52.022;4.692;2023-11-21T06:13:04;101540.09;;;10.46;100.00
12247;BME280;6186;52.022;4.692;2023-11-21T06:15:29;101547.06;;;10.49;100.00
12247;BME280;6186;52.022;4.692;2023-11-21T06:17:54;101554.97;;;10.50;100.00
12247;BME280;6186;52.022;4.692;2023-11-21T06:20:21;101549.69;;;10.50;100.00
12247;BME280;6186;52.022;4.692;2023-11-21T06:22:48;101547.03;;;10.52;100.00
12247;BME280;6186;52.022;4.692;2023-11-21T06:25:14;101559.28;;;10.53;100.00
12247;BME280;6186;52.022;4.692;2023-11-21T06:27:44;101554.00;;;10.56;100.00
12247;BME280;6186;52.022;4.692;2023-11-21T06:30:10;101558.38;;;10.57;100.00
12247;BME280;6186;52.022;4.692;2023-11-21T06:32:36;101562.75;;;10.58;100.00
12247;BME280;6186;52.022;4.692;2023-11-21T06:35:05;101560.97;;;10.58;100.00
12247;BME280;6186;52.022;4.692;2023-11-21T06:37:31;101553.94;;;10.59;100.00
12247;BME280;6186;52.022;4.692;2023-11-21T06:39:57;101568.88;;;10.60;100.00
12247;BME280;6186;52.022;4.692;2023-11-21T06:42:23;101576.75;;;10.58;100.00
12247;BME280;6186;52.022;4.692;2023-11-21T06:44:49;101579.44;;;10.55;100.00
12247;BME280;6186;52.022;4.692;2023-11-21T06:47:14;101581.25;;;10.52;100.00
12247;BME280;6186;52.022;4.692;2023-11-21T06:49:42;101581.28;;;10.50;100.00
12247;BME280;6186;52.022;4.692;2023-11-21T06:52:07;101593.59;;;10.48;100.00
12247;BME280;6186;52.022;4.692;2023-11-21T06:54:33;101590.94;;;10.47;100.00
12247;BME280;6186;52.022;4.692;2023-11-21T06:56:58;101592.75;;;10.43;100.00
12247;BME280;6186;52.022;4.692;2023-11-21T06:59:24;101598.91;;;10.43;100.00
12247;BME280;6186;52.022;4.692;2023-11-21T07:01:49;101603.28;;;10.43;100.00
12247;BME280;6186;52.022;4.692;2023-11-21T07:04:15;101613.75;;;10.49;100.00
12247;BME280;6186;52.022;4.692;2023-11-21T07:06:40;101609.34;;;10.51;100.00
12247;BME280;6186;52.022;4.692;2023-11-21T07:09:05;101617.22;;;10.53;100.00
12247;BME280;6186;52.022;4.692;2023-11-21T07:11:30;101621.56;;;10.55;100.00
12247;BME280;6186;52.022;4.692;2023-11-21T07:13:55;101619.78;;;10.57;100.00
12247;BME280;6186;52.022;4.692;2023-11-21T07:16:21;101622.38;;;10.60;100.00
12247;BME280;6186;52.022;4.692;2023-11-21T07:18:46;101619.75;;;10.62;100.00
12247;BME280;6186;52.022;4.692;2023-11-21T07:21:11;101624.09;;;10.63;100.00
12247;BME280;6186;52.022;4.692;2023-11-21T07:23:36;101629.31;;;10.66;100.00
12247;BME280;6186;52.022;4.692;2023-11-21T07:26:02;101629.31;;;10.66;100.00
12247;BME280;6186;52.022;4.692;2023-11-21T07:28:27;101639.84;;;10.69;100.00
12247;BME280;6186;52.022;4.692;2023-11-21T07:30:52;101638.06;;;10.69;100.00
12247;BME280;6186;52.022;4.692;2023-11-21T07:33:17;101645.06;;;10.70;100.00
12247;BME280;6186;52.022;4.692;2023-11-21T07:35:43;101647.69;;;10.70;100.00
12247;BME280;6186;52.022;4.692;2023-11-21T07:38:08;101646.78;;;10.71;100.00
12247;BME280;6186;52.022;4.692;2023-11-21T07:40:33;101657.34;;;10.71;100.00
12247;BME280;6186;52.022;4.692;2023-11-21T07:42:58;101660.81;;;10.73;100.00
12247;BME280;6186;52.022;4.692;2023-11-21T07:45:24;101661.69;;;10.74;100.00
12247;BME280;6186;52.022;4.692;2023-11-21T07:47:49;101670.47;;;10.74;100.00
12247;BME280;6186;52.022;4.692;2023-11-21T07:50:14;101673.09;;;10.76;100.00
12247;BME280;6186;52.022;4.692;2023-11-21T07:52:39;101681.84;;;10.78;100.00
12247;BME280;6186;52.022;4.692;2023-11-21T07:55:05;101677.44;;;10.78;100.00
12247;BME280;6186;52.022;4.692;2023-11-21T07:57:30;101684.44;;;10.79;100.00
12247;BME280;6186;52.022;4.692;2023-11-21T07:59:55;101697.59;;;10.81;100.00
12247;BME280;6186;52.022;4.692;2023-11-21T08:02:20;101694.09;;;10.80;100.00
12247;BME280;6186;52.022;4.692;2023-11-21T08:04:46;101690.63;;;10.78;100.00
12247;BME280;6186;52.022;4.692;2023-11-21T08:07:11;101689.75;;;10.78;100.00
12247;BME280;6186;52.022;4.692;2023-11-21T08:09:36;101702.88;;;10.82;100.00
12247;BME280;6186;52.022;4.692;2023-11-21T08:12:01;101707.22;;;10.83;100.00
12247;BME280;6186;52.022;4.692;2023-11-21T08:14:27;101706.34;;;10.83;100.00
12247;BME280;6186;52.022;4.692;2023-11-21T08:16:52;101710.72;;;10.85;100.00
12247;BME280;6186;52.022;4.692;2023-11-21T08:19:17;101717.72;;;10.86;100.00
12247;BME280;6186;52.022;4.692;2023-11-21T08:21:42;101721.19;;;10.88;100.00
12247;BME280;6186;52.022;4.692;2023-11-21T08:24:08;101723.81;;;10.91;100.00
12247;BME280;6186;52.022;4.692;2023-11-21T08:26:33;101738.69;;;10.95;100.00
12247;BME280;6186;52.022;4.692;2023-11-21T08:28:58;101729.00;;;10.97;100.00
12247;BME280;6186;52.022;4.692;2023-11-21T08:31:25;101727.22;;;10.99;100.00
12247;BME280;6186;52.022;4.692;2023-11-21T08:33:50;101733.34;;;11.01;100.00
12247;BME280;6186;52.022;4.692;2023-11-21T08:36:15;101729.81;;;11.02;100.00
12247;BME280;6186;52.022;4.692;2023-11-21T08:38:41;101737.69;;;11.04;100.00
12247;BME280;6186;52.022;4.692;2023-11-21T08:41:07;101733.31;;;11.04;100.00
12247;BME280;6186;52.022;4.692;2023-11-21T08:43:35;101737.66;;;11.05;100.00
12247;BME280;6186;52.022;4.692;2023-11-21T08:46:00;101741.16;;;11.09;100.00
12247;BME280;6186;52.022;4.692;2023-11-21T08:48:25;101743.78;;;11.10;100.00
12247;BME280;6186;52.022;4.692;2023-11-21T08:50:51;101749.88;;;11.12;100.00
12247;BME280;6186;52.022;4.692;2023-11-21T08:53:16;101750.75;;;11.14;100.00
12247;BME280;6186;52.022;4.692;2023-11-21T08:55:41;101749.78;;;11.18;100.00
12247;BME280;6186;52.022;4.692;2023-11-21T08:58:06;101743.59;;;11.22;100.00
12247;BME280;6186;52.022;4.692;2023-11-21T09:00:32;101747.06;;;11.27;100.00
12247;BME280;6186;52.022;4.692;2023-11-21T09:02:58;101751.38;;;11.30;100.00
12247;BME280;6186;52.022;4.692;2023-11-21T09:05:23;101754.88;;;11.33;100.00
12247;BME280;6186;52.022;4.692;2023-11-21T09:07:48;101764.47;;;11.37;100.00
12247;BME280;6186;52.022;4.692;2023-11-21T09:10:13;101770.59;;;11.41;100.00
12247;BME280;6186;52.022;4.692;2023-11-21T09:12:39;101775.81;;;11.44;100.00
12247;BME280;6186;52.022;4.692;2023-11-21T09:15:05;101779.28;;;11.48;100.00
12247;BME280;6186;52.022;4.692;2023-11-21T09:17:32;101781.94;;;11.46;100.00
12247;BME280;6186;52.022;4.692;2023-11-21T09:19:57;101801.22;;;11.50;100.00
12247;BME280;6186;52.022;4.692;2023-11-21T09:22:23;101797.72;;;11.48;100.00
12247;BME280;6186;52.022;4.692;2023-11-21T09:24:48;101804.75;;;11.49;100.00
12247;BME280;6186;52.022;4.692;2023-11-21T09:27:13;101797.72;;;11.48;100.00
12247;BME280;6186;52.022;4.692;2023-11-21T09:29:38;101817.09;;;11.47;100.00
12247;BME280;6186;52.022;4.692;2023-11-21T09:32:05;101813.59;;;11.45;100.00
12247;BME280;6186;52.022;4.692;2023-11-21T09:34:30;101814.50;;;11.42;100.00
12247;BME280;6186;52.022;4.692;2023-11-21T09:36:55;101825.97;;;11.41;100.00
12247;BME280;6186;52.022;4.692;2023-11-21T09:39:21;101827.75;;;11.39;100.00
12247;BME280;6186;52.022;4.692;2023-11-21T09:41:51;101834.75;;;11.38;100.00
12247;BME280;6186;52.022;4.692;2023-11-21T09:44:18;101831.31;;;11.35;100.00
12247;BME280;6186;52.022;4.692;2023-11-21T09:46:47;101836.56;;;11.35;100.00
12247;BME280;6186;52.022;4.692;2023-11-21T09:49:13;101844.47;;;11.35;100.00
12247;BME280;6186;52.022;4.692;2023-11-21T09:51:42;101849.69;;;11.38;100.00
12247;BME280;6186;52.022;4.692;2023-11-21T09:54:10;101856.72;;;11.37;100.00
12247;BME280;6186;52.022;4.692;2023-11-21T09:56:36;101856.75;;;11.36;100.00
12247;BME280;6186;52.022;4.692;2023-11-21T09:59:03;101864.63;;;11.37;100.00
12247;BME280;6186;52.022;4.692;2023-11-21T10:01:28;101865.59;;;11.32;100.00
12247;BME280;6186;52.022;4.692;2023-11-21T10:03:54;101880.44;;;11.37;100.00
12247;BME280;6186;52.022;4.692;2023-11-21T10:06:20;101882.22;;;11.38;100.00
12247;BME280;6186;52.022;4.692;2023-11-21T10:08:46;101888.38;;;11.39;100.00
12247;BME280;6186;52.022;4.692;2023-11-21T10:11:12;101893.66;;;11.39;100.00
12247;BME280;6186;52.022;4.692;2023-11-21T10:13:39;101893.66;;;11.36;100.00
12247;BME280;6186;52.022;4.692;2023-11-21T10:16:06;101895.47;;;11.32;100.00
12247;BME280;6186;52.022;4.692;2023-11-21T10:18:33;101905.13;;;11.32;100.00
12247;BME280;6186;52.022;4.692;2023-11-21T10:20:58;101917.47;;;11.31;100.00
12247;BME280;6186;52.022;4.692;2023-11-21T10:23:24;101905.25;;;11.21;100.00
12247;BME280;6186;52.022;4.692;2023-11-21T10:25:50;101912.25;;;11.22;100.00
12247;BME280;6186;52.022;4.692;2023-11-21T10:28:16;101924.59;;;11.19;100.00
12247;BME280;6186;52.022;4.692;2023-11-21T10:30:41;101926.34;;;11.18;100.00
12247;BME280;6186;52.022;4.692;2023-11-21T10:33:07;101933.44;;;11.16;100.00
12247;BME280;6186;52.022;4.692;2023-11-21T10:35:42;101929.91;;;11.16;100.00
12247;BME280;6186;52.022;4.692;2023-11-21T10:38:07;101940.44;;;11.17;100.00
12247;BME280;6186;52.022;4.692;2023-11-21T10:40:32;101935.16;;;11.17;100.00
12247;BME280;6186;52.022;4.692;2023-11-21T10:43:06;101946.53;;;11.21;100.00
12247;BME280;6186;52.022;4.692;2023-11-21T10:45:31;101948.31;;;11.22;100.00
12247;BME280;6186;52.022;4.692;2023-11-21T10:47:57;101955.28;;;11.24;100.00
12247;BME280;6186;52.022;4.692;2023-11-21T10:50:23;101945.66;;;11.20;100.00
12247;BME280;6186;52.022;4.692;2023-11-21T10:52:48;101964.97;;;11.25;100.00
12247;BME280;6186;52.022;4.692;2023-11-21T10:55:18;101965.88;;;11.21;100.00
12247;BME280;6186;52.022;4.692;2023-11-21T10:57:49;101963.25;;;11.21;100.00
12247;BME280;6186;52.022;4.692;2023-11-21T11:00:16;101949.25;;;11.13;100.00
12247;BME280;6186;52.022;4.692;2023-11-21T11:02:42;101965.88;;;11.21;100.00
12247;BME280;6186;52.022;4.692;2023-11-21T11:05:08;101979.94;;;11.22;100.00
12247;BME280;6186;52.022;4.692;2023-11-21T11:07:35;101972.88;;;11.22;100.00
12247;BME280;6186;52.022;4.692;2023-11-21T11:10:01;101966.72;;;11.23;100.00
12247;BME280;6186;52.022;4.692;2023-11-21T11:12:27;101971.13;;;11.23;100.00
12247;BME280;6186;52.022;4.692;2023-11-21T11:14:52;101978.13;;;11.25;100.00
12247;BME280;6186;52.022;4.692;2023-11-21T11:17:19;101976.38;;;11.27;100.00
12247;BME280;6186;52.022;4.692;2023-11-21T11:19:44;101983.38;;;11.27;100.00
12247;BME280;6186;52.022;4.692;2023-11-21T11:27:52;101976.34;;;11.29;100.00
12247;BME280;6186;52.022;4.692;2023-11-21T11:33:12;101976.38;;;11.26;100.00
12247;BME280;6186;52.022;4.692;2023-11-21T11:35:46;101971.09;;;11.24;100.00
12247;BME280;6186;52.022;4.692;2023-11-21T11:38:16;101977.25;;;11.25;100.00
12247;BME280;6186;52.022;4.692;2023-11-21T11:40:45;101971.09;;;11.26;100.00
12247;BME280;6186;52.022;4.692;2023-11-21T11:43:10;101973.72;;;11.27;100.00
12247;BME280;6186;52.022;4.692;2023-11-21T11:45:36;101981.56;;;11.32;100.00
12247;BME280;6186;52.022;4.692;2023-11-21T11:48:02;101986.81;;;11.35;100.00
12247;BME280;6186;52.022;4.692;2023-11-21T11:50:27;101984.13;;;11.39;100.00
12247;BME280;6186;52.022;4.692;2023-11-21T11:52:53;101989.38;;;11.43;100.00
12247;BME280;6186;52.022;4.692;2023-11-21T11:55:21;101992.84;;;11.46;100.00
12247;BME280;6186;52.022;4.692;2023-11-21T11:57:53;101987.56;;;11.48;100.00
12247;BME280;6186;52.022;4.692;2023-11-21T12:02:48;101998.06;;;11.52;100.00
12247;BME280;6186;52.022;4.692;2023-11-21T12:05:16;102010.34;;;11.55;100.00
12247;BME280;6186;52.022;4.692;2023-11-21T12:07:54;102016.50;;;11.55;100.00
12247;BME280;6186;52.022;4.692;2023-11-21T12:10:27;102020.00;;;11.56;100.00
12247;BME280;6186;52.022;4.692;2023-11-21T12:12:55;102020.88;;;11.55;100.00
12247;BME280;6186;52.022;4.692;2023-11-21T12:15:21;102019.16;;;11.54;100.00
12247;BME280;6186;52.022;4.692;2023-11-21T12:17:47;102029.72;;;11.51;100.00
12247;BME280;6186;52.022;4.692;2023-11-21T12:20:13;102019.25;;;11.45;100.00
12247;BME280;6186;52.022;4.692;2023-11-21T12:22:39;102034.22;;;11.41;100.00
12247;BME280;6186;52.022;4.692;2023-11-21T12:25:04;102027.22;;;11.35;100.00
12247;BME280;6186;52.022;4.692;2023-11-21T12:27:29;102033.44;;;11.31;100.00
12247;BME280;6186;52.022;4.692;2023-11-21T12:29:54;102031.72;;;11.27;100.00
12247;BME280;6186;52.022;4.692;2023-11-21T12:32:20;102030.84;;;11.27;100.00
12247;BME280;6186;52.022;4.692;2023-11-21T12:34:46;102043.09;;;11.28;100.00
12247;BME280;6186;52.022;4.692;2023-11-21T12:37:11;102043.97;;;11.31;100.00
12247;BME280;6186;52.022;4.692;2023-11-21T12:39:36;102054.53;;;11.31;100.00
12247;BME280;6186;52.022;4.692;2023-11-21T12:42:02;102051.03;;;11.29;100.00
12247;BME280;6186;52.022;4.692;2023-11-21T12:44:28;102050.16;;;11.29;100.00
12247;BME280;6186;52.022;4.692;2023-11-21T12:46:53;102051.00;;;11.28;100.00
12247;BME280;6186;52.022;4.692;2023-11-21T12:49:18;102057.19;;;11.27;100.00
12247;BME280;6186;52.022;4.692;2023-11-21T12:51:45;102057.16;;;11.30;100.00
12247;BME280;6186;52.022;4.692;2023-11-21T12:54:11;102058.06;;;11.29;100.00
12247;BME280;6186;52.022;4.692;2023-11-21T12:56:39;102065.97;;;11.29;100.00
12247;BME280;6186;52.022;4.692;2023-11-21T12:59:05;102059.81;;;11.28;100.00
12247;BME280;6186;52.022;4.692;2023-11-21T13:01:30;102075.63;;;11.28;100.00
12247;BME280;6186;52.022;4.692;2023-11-21T13:03:57;102076.47;;;11.30;100.00
12247;BME280;6186;52.022;4.692;2023-11-21T13:06:23;102082.63;;;11.32;100.00
12247;BME280;6186;52.022;4.692;2023-11-21T13:08:48;102079.06;;;11.38;100.00
12247;BME280;6186;52.022;4.692;2023-11-21T13:11:13;102079.03;;;11.41;100.00
12247;BME280;6186;52.022;4.692;2023-11-21T13:13:40;102067.63;;;11.37;100.00
12247;BME280;6186;52.022;4.692;2023-11-21T13:16:06;102082.53;;;11.42;100.00
12247;BME280;6186;52.022;4.692;2023-11-21T13:18:32;102085.22;;;11.35;100.00
12247;BME280;6186;52.022;4.692;2023-11-21T13:21:05;102080.84;;;11.34;100.00
12247;BME280;6186;52.022;4.692;2023-11-21T13:23:34;102101.06;;;11.32;100.00
12247;BME280;6186;52.022;4.692;2023-11-21T13:26:00;102089.66;;;11.33;100.00
12247;BME280;6186;52.022;4.692;2023-11-21T13:28:25;102088.75;;;11.36;100.00
12247;BME280;6186;52.022;4.692;2023-11-21T13:30:50;102088.75;;;11.34;100.00
12247;BME280;6186;52.022;4.692;2023-11-21T13:33:15;102092.28;;;11.32;100.00
12247;BME280;6186;52.022;4.692;2023-11-21T13:35:40;102102.91;;;11.26;100.00
12247;BME280;6186;52.022;4.692;2023-11-21T13:38:11;102109.06;;;11.23;100.00